Current Conditions
Mostly Clear
Conditions




Pressure
1019.92 (mb) - 30.12 (inHG)
Visibility

10.0 (km) - 6.2 (miles)
   Temperature
12  °C
54°F
3  °C
Dewpoint
54  %
 Humidity
   Wind Speed
0  m/s
0  mph
0  km/h
0  kts
   Wind Direction
Calm
Due North
   Airport Data
ENAL
Location Ă…lesund Airport 10 km (6.22 mi)
Metar :ENAL 191750Z 00000KT CAVOK 12/03 Q1020
Mon 19th April 19:50 pm
   Raw Metar Info
Raw METAR is the most common format in the world for the transmission of observational weather data. It is highly standardized through the International Civil Aviation Organization (ICAO), which allows it to be understood throughout most of the world.
   API Info
Data Provided by
https://www.checkwx.com/weather/ENAL
   © Info
CSS/SVG/PHP scripts were developed by weather34.com for use in the weather34 template © 2015-2021

Guide Info provided by Metar-Wikipedia